Acorn Park, Oregon
Current Conditions -  °F | °C
As of 10:54 PM on Thursday 30 Oct 2014 (Local Time) from KEUG Reporting Station
Light Rain Light Rain  
Wind Chill: 14°   Ceiling: 3800
Heat Index: 14°   Visibility: 9mi
Dew Point: 13°   Wind: 9mph
Humidity: 93%   Direction: 140°SE
Pressure: 29.79"   Gusts: NA
Location:  44.0318°N, 123.235°W
Report Text: KEUG 310554Z 14008KT 9SM -RA FEW030 BKN038 OVC046 14/13 A2979 RMK AO2 SLP088 P0003 60026 T01440133 10156 20144 57006
Loading
Personal Weather Stations






























Interactive Weather Map
Tropical Storm Tracking
New forecast layout! Learn more

10-Day Weather Forecast

Advertisements
Track Severe Weather on mobile